MMML 090549Z 13004KT 10SM SKC 15/05 A2993 RMK SLP135 52003 963 MSGTX MMMX= 090549

MMML 090446Z 17004KT 10SM SKC 16/05 A2993 RMK MSGTX MMMX= 090446

MMML 090040Z 13004KT 10SM FEW120 22/03 A2991 RMK 8/070 ISOL CI= 090041

MMML 082342Z 00000KT 10SM SKC 23/02 A2991 RMK SLP129 57013 953 AC S ISOL CI= 082342

MMML 082245Z 00000KT 10SM SKC 24/03 A2992 RMK ISOL CI= 082245

MMML 082141Z 00000KT 10SM SKC 24/03 A2992 RMK ISOL CI= 082141

MMML 082045Z 14002KT 10SM SKC 23/02 A2995 RMK SLP139 57027 920 ISOL-AC= 082047

MMML 082009Z RTD 22004KT 10SM SCT140 22/02 A2996 RMK 8/030= 082010

MMML 081907Z RTD 00000KT 10SM SCT140 21/03 A3000 RMK 8/030= 081908

MMML 081745Z 34005KT 10SM BKN140 18/07 A3002 RMK SLP166 52013 937 8/030= 081748

MMML 081642Z 31007KT 10SM FEW100 SCT200 18/05 A3002 RMK 8/084= 081643

MMML 081550Z 30004KT 10SM BKN100 13/06 A3001 RMK 8/080= 081551

MMML 081444Z 30003KT 10SM BKN100 OVC200 13/05 A2998 RMK SLP152 5//// 997 8/087= 081448

MMML 081420Z RTD 28003KT 10SM BKN100 OVC200 12/06 A2998 RMK 8/087 RTS= 081421

MMML 080846Z 31007KT 10SM BKN080 BKN200 15/07 A2995 RMK SLP142 57007 930 8/078= 080847

MMML 080740Z 30004KT 10SM BKN080 BKN200 16/07 A2996 RMK 8/078= 080741

MMML 080644Z 00000KT 10SM BKN080 OVC200 16/08 A2997 RMK 8/077= 080645

MMML 080540Z 00000KT 10SM BKN080 OVC200 16/09 A2997 RMK SLP149 52003 923 8/077= 080542

MMML 080440Z 00000KT 10SM BKN080 OVC200 16/09 A2995 RMK 8/077= 080440

MMML 080340Z 29004KT 10SM BKN080 OVC200 16/09 A2996 RMK 8/077= 080341

MMML 080241Z 31008KT 10SM BKN080 OVC200 17/08 A2996 RMK SLP146 52013 913 8/077= 080241

MMML 080140Z 32004KT 10SM SCT090 OVC200 16/09 A2994 RMK 8/077 BINOVC= 080140

MMML 080041Z 34007KT 10SM SCT090 OVC200 16/10 A2992 RMK 8/097= 080043

MMML 072342Z 32010KT 10SM SCT090 OVC200 16/11 A2992 RMK SLP132 57013 900 8/097= 072349

MMML 072242Z 32009KT 10SM OVC200 18/08 A2989 RMK 8/007= 072243

MMML 072143Z 33010KT 10SM OVC200 18/07 A2989 RMK 8/007= 072144

MMML 072041Z 31009KT 10SM OVC200 22/08 A2988 RMK SLP119 57010 977 8/007= 072043

MMML 071943Z 00000KT 10SM BKN120 OVC200 22/05 A2988 RMK 8/087= 071944

MMML 071840Z 00000KT 10SM SCT120 OVC200 21/07 A2990 RMK 8/087= 071840

MMML 071743Z 13002KT 10SM SCT120 OVC200 20/07 A2991 RMK SLP129 52013 991 8/087= 071744

MMML 071647Z 14003KT 10SM SCT120 OVC200 16/04 A2990 RMK 8/087= 071649

MMML 071543Z 12003KT 10SM BKN120 15/03 A2989 RMK 8/080= 071550

MMML 071440Z 22003KT 10SM SCT120 BKN200 11/04 A2987 RMK SLP115 5//// 99| 8/038= 071443

MMML 071410Z RTD 09004KT 10SM SCT120 BKN200 13/05 A2986 RMK 8/038 RTS= 071411

MMML 070840Z 09007KT 10SM SCT200 13/06 A2986 RMK SLP112 57013 990 8/008 AC= 070842

MMML 070740Z 11004KT 10SM SKC 14/08 A2987 RMK ISOL CI= 070740

MMML 070640Z 12008KT 10SM SKC 14/11 A2988 RMK ISOL CI= 070641

MMML 070540Z 11007KT 10SM FEW200 14/08 A2990 RMK SLP125 57007 980 8/008= 070542

MMML 070440Z 12005KT 10SM BKN200 16/05 A2991 RMK 8/008 AC= 070441

MMML 070340Z 13006KT 10SM BKN200 17/02 A2991 RMK 8/008 AC= 070341

MMML 070240Z 13004KT 10SM BKN200 18/00 A2992 RMK SLP132 54000 960 8/008= 070240

MMML 070142Z 12005KT 10SM BKN200 22/00 A2991 RMK 8/008 AC= 070143

MMML 070050Z 12005KT 10SM OVC200 22/00 A2991 RMK 8/007= 070051

MMML 062340Z 11006KT 10SM OVC200 26/04 A2992 RMK SLP132 57013 960 8/007 BINOVC= 062345

MMML 062240Z 09004KT 10SM OVC200 27/M06 A2992 RMK 8/007 BINOVC= 062242

MMML 062140Z 07005KT 10SM BKN200 27/M07 A2994 RMK 8/008= 062141

MMML 062040Z 13006KT 10SM SCT200 26/M06 A2996 RMK SLP146 57033 957 8/002= 062042

MMML 061942Z 09002KT 10SM SKC 25/M04 A3000 RMK ISOL-CI= 061942

MMML 061840Z 13004KT 10SM SKC 23/M01 A3004 RMK ISOL-CI= 061841

MMML 061747Z 10003KT 10SM SKC 20/00 A3006 RMK SLP179 52010 9OO= 061749